sensor_id;sensor_type;location;lat;lon;timestamp;P1;durP1;ratioP1;P2;durP2;ratioP2
69417;SDS011;56610;48.872;2.400;2023-02-25T00:01:10;9.35;;;6.63;;
69417;SDS011;56610;48.872;2.400;2023-02-25T00:03:38;8.82;;;6.00;;
69417;SDS011;56610;48.872;2.400;2023-02-25T00:06:04;8.23;;;6.05;;
69417;SDS011;56610;48.872;2.400;2023-02-25T00:08:32;9.23;;;6.45;;
69417;SDS011;56610;48.872;2.400;2023-02-25T00:10:59;11.82;;;6.53;;
69417;SDS011;56610;48.872;2.400;2023-02-25T00:13:29;9.52;;;6.20;;
69417;SDS011;56610;48.872;2.400;2023-02-25T00:15:55;11.05;;;6.93;;
69417;SDS011;56610;48.872;2.400;2023-02-25T00:18:25;8.77;;;6.22;;
69417;SDS011;56610;48.872;2.400;2023-02-25T00:20:51;11.80;;;6.90;;
69417;SDS011;56610;48.872;2.400;2023-02-25T00:23:17;8.50;;;6.43;;
69417;SDS011;56610;48.872;2.400;2023-02-25T00:25:44;10.90;;;6.15;;
69417;SDS011;56610;48.872;2.400;2023-02-25T00:30:57;10.25;;;6.38;;
69417;SDS011;56610;48.872;2.400;2023-02-25T00:33:22;10.48;;;6.55;;
69417;SDS011;56610;48.872;2.400;2023-02-25T00:35:48;8.18;;;6.07;;
69417;SDS011;56610;48.872;2.400;2023-02-25T00:38:14;12.68;;;6.50;;
69417;SDS011;56610;48.872;2.400;2023-02-25T00:40:41;12.35;;;6.05;;
69417;SDS011;56610;48.872;2.400;2023-02-25T00:43:07;9.25;;;5.68;;
69417;SDS011;56610;48.872;2.400;2023-02-25T00:45:33;10.05;;;5.95;;
69417;SDS011;56610;48.872;2.400;2023-02-25T00:47:58;11.70;;;5.90;;
69417;SDS011;56610;48.872;2.400;2023-02-25T00:50:24;8.95;;;5.50;;
69417;SDS011;56610;48.872;2.400;2023-02-25T00:52:50;8.02;;;5.07;;
69417;SDS011;56610;48.872;2.400;2023-02-25T00:55:16;9.95;;;5.13;;
69417;SDS011;56610;48.872;2.400;2023-02-25T00:57:41;10.52;;;5.93;;
69417;SDS011;56610;48.872;2.400;2023-02-25T01:00:08;10.00;;;5.38;;
69417;SDS011;56610;48.872;2.400;2023-02-25T01:02:40;8.82;;;5.05;;
69417;SDS011;56610;48.872;2.400;2023-02-25T01:05:07;8.15;;;4.70;;
69417;SDS011;56610;48.872;2.400;2023-02-25T01:07:33;7.05;;;4.75;;
69417;SDS011;56610;48.872;2.400;2023-02-25T01:09:58;7.32;;;4.55;;
69417;SDS011;56610;48.872;2.400;2023-02-25T01:12:24;8.35;;;5.03;;
69417;SDS011;56610;48.872;2.400;2023-02-25T01:14:50;7.07;;;3.78;;
69417;SDS011;56610;48.872;2.400;2023-02-25T01:17:18;9.70;;;5.38;;
69417;SDS011;56610;48.872;2.400;2023-02-25T01:19:44;9.48;;;4.78;;
69417;SDS011;56610;48.872;2.400;2023-02-25T01:22:09;9.05;;;4.38;;
69417;SDS011;56610;48.872;2.400;2023-02-25T01:24:35;10.93;;;4.32;;
69417;SDS011;56610;48.872;2.400;2023-02-25T01:27:02;8.65;;;4.47;;
69417;SDS011;56610;48.872;2.400;2023-02-25T01:29:36;9.55;;;4.28;;
69417;SDS011;56610;48.872;2.400;2023-02-25T01:32:04;7.30;;;3.58;;
69417;SDS011;56610;48.872;2.400;2023-02-25T01:34:32;7.13;;;3.80;;
69417;SDS011;56610;48.872;2.400;2023-02-25T01:36:58;8.90;;;3.72;;
69417;SDS011;56610;48.872;2.400;2023-02-25T01:39:24;7.00;;;3.58;;
69417;SDS011;56610;48.872;2.400;2023-02-25T01:41:51;6.35;;;3.60;;
69417;SDS011;56610;48.872;2.400;2023-02-25T01:46:46;7.22;;;3.65;;
69417;SDS011;56610;48.872;2.400;2023-02-25T01:49:21;6.93;;;3.70;;
69417;SDS011;56610;48.872;2.400;2023-02-25T01:51:53;10.88;;;4.28;;
69417;SDS011;56610;48.872;2.400;2023-02-25T01:54:23;9.57;;;3.78;;
69417;SDS011;56610;48.872;2.400;2023-02-25T01:56:50;9.77;;;3.97;;
69417;SDS011;56610;48.872;2.400;2023-02-25T01:59:20;7.70;;;3.88;;
69417;SDS011;56610;48.872;2.400;2023-02-25T02:01:49;6.50;;;3.40;;
69417;SDS011;56610;48.872;2.400;2023-02-25T02:04:15;8.38;;;3.33;;
69417;SDS011;56610;48.872;2.400;2023-02-25T02:06:44;7.32;;;3.10;;
69417;SDS011;56610;48.872;2.400;2023-02-25T02:11:39;6.25;;;3.17;;
69417;SDS011;56610;48.872;2.400;2023-02-25T02:14:05;8.77;;;3.72;;
69417;SDS011;56610;48.872;2.400;2023-02-25T02:19:52;7.55;;;2.97;;
69417;SDS011;56610;48.872;2.400;2023-02-25T02:40:52;8.45;;;3.55;;
69417;SDS011;56610;48.872;2.400;2023-02-25T02:46:17;8.93;;;4.15;;
69417;SDS011;56610;48.872;2.400;2023-02-25T02:51:28;7.93;;;3.20;;
69417;SDS011;56610;48.872;2.400;2023-02-25T02:53:59;7.50;;;3.17;;
69417;SDS011;56610;48.872;2.400;2023-02-25T02:56:28;8.25;;;3.35;;
69417;SDS011;56610;48.872;2.400;2023-02-25T02:59:01;7.45;;;3.58;;
69417;SDS011;56610;48.872;2.400;2023-02-25T03:01:45;9.05;;;3.20;;
69417;SDS011;56610;48.872;2.400;2023-02-25T03:04:20;6.38;;;2.85;;
69417;SDS011;56610;48.872;2.400;2023-02-25T03:06:52;7.90;;;3.38;;
69417;SDS011;56610;48.872;2.400;2023-02-25T03:09:25;7.57;;;3.10;;
69417;SDS011;56610;48.872;2.400;2023-02-25T03:11:57;6.03;;;2.70;;
69417;SDS011;56610;48.872;2.400;2023-02-25T03:14:22;10.57;;;3.33;;
69417;SDS011;56610;48.872;2.400;2023-02-25T03:16:56;5.28;;;2.67;;
69417;SDS011;56610;48.872;2.400;2023-02-25T03:25:02;7.45;;;2.53;;
69417;SDS011;56610;48.872;2.400;2023-02-25T03:27:38;6.53;;;3.00;;
69417;SDS011;56610;48.872;2.400;2023-02-25T03:30:11;7.72;;;2.92;;
69417;SDS011;56610;48.872;2.400;2023-02-25T03:32:51;5.95;;;3.20;;
69417;SDS011;56610;48.872;2.400;2023-02-25T03:35:19;9.52;;;3.60;;
69417;SDS011;56610;48.872;2.400;2023-02-25T03:40:15;10.40;;;3.47;;
69417;SDS011;56610;48.872;2.400;2023-02-25T03:42:45;7.97;;;3.20;;
69417;SDS011;56610;48.872;2.400;2023-02-25T03:45:15;7.70;;;2.85;;
69417;SDS011;56610;48.872;2.400;2023-02-25T03:47:41;6.28;;;3.00;;
69417;SDS011;56610;48.872;2.400;2023-02-25T03:50:09;6.65;;;2.90;;
69417;SDS011;56610;48.872;2.400;2023-02-25T03:52:38;6.88;;;2.97;;
69417;SDS011;56610;48.872;2.400;2023-02-25T03:55:05;8.40;;;3.00;;
69417;SDS011;56610;48.872;2.400;2023-02-25T03:57:37;9.60;;;3.33;;
69417;SDS011;56610;48.872;2.400;2023-02-25T04:00:15;6.22;;;2.85;;
69417;SDS011;56610;48.872;2.400;2023-02-25T04:02:53;9.75;;;3.70;;
69417;SDS011;56610;48.872;2.400;2023-02-25T04:05:19;6.53;;;3.10;;
69417;SDS011;56610;48.872;2.400;2023-02-25T04:07:46;9.85;;;3.70;;
69417;SDS011;56610;48.872;2.400;2023-02-25T04:10:13;8.13;;;3.17;;
69417;SDS011;56610;48.872;2.400;2023-02-25T04:12:40;5.53;;;2.70;;
69417;SDS011;56610;48.872;2.400;2023-02-25T04:15:06;5.75;;;2.88;;
69417;SDS011;56610;48.872;2.400;2023-02-25T04:17:32;7.70;;;2.97;;
69417;SDS011;56610;48.872;2.400;2023-02-25T04:19:59;5.43;;;2.40;;
69417;SDS011;56610;48.872;2.400;2023-02-25T04:22:24;7.75;;;3.00;;
69417;SDS011;56610;48.872;2.400;2023-02-25T04:24:50;7.80;;;3.20;;
69417;SDS011;56610;48.872;2.400;2023-02-25T04:27:16;9.10;;;3.35;;
69417;SDS011;56610;48.872;2.400;2023-02-25T04:29:42;8.77;;;3.42;;
69417;SDS011;56610;48.872;2.400;2023-02-25T04:32:09;6.43;;;2.72;;
69417;SDS011;56610;48.872;2.400;2023-02-25T04:34:35;10.07;;;3.60;;
69417;SDS011;56610;48.872;2.400;2023-02-25T04:37:01;8.82;;;3.50;;
69417;SDS011;56610;48.872;2.400;2023-02-25T04:39:28;7.68;;;3.03;;
69417;SDS011;56610;48.872;2.400;2023-02-25T04:41:55;8.45;;;3.05;;
69417;SDS011;56610;48.872;2.400;2023-02-25T04:44:21;5.80;;;3.03;;
69417;SDS011;56610;48.872;2.400;2023-02-25T04:46:47;7.55;;;2.72;;
69417;SDS011;56610;48.872;2.400;2023-02-25T04:49:19;8.35;;;2.83;;
69417;SDS011;56610;48.872;2.400;2023-02-25T04:51:49;8.45;;;2.88;;
69417;SDS011;56610;48.872;2.400;2023-02-25T04:54:15;9.38;;;3.35;;
69417;SDS011;56610;48.872;2.400;2023-02-25T04:56:42;6.88;;;2.83;;
69417;SDS011;56610;48.872;2.400;2023-02-25T04:59:08;7.53;;;3.10;;
69417;SDS011;56610;48.872;2.400;2023-02-25T05:01:36;7.97;;;2.83;;
69417;SDS011;56610;48.872;2.400;2023-02-25T05:04:02;7.88;;;2.65;;
69417;SDS011;56610;48.872;2.400;2023-02-25T05:06:28;6.75;;;2.85;;
69417;SDS011;56610;48.872;2.400;2023-02-25T05:08:54;6.28;;;2.75;;
69417;SDS011;56610;48.872;2.400;2023-02-25T05:11:21;8.18;;;3.03;;
69417;SDS011;56610;48.872;2.400;2023-02-25T05:13:48;6.40;;;2.85;;
69417;SDS011;56610;48.872;2.400;2023-02-25T05:16:14;9.52;;;2.90;;
69417;SDS011;56610;48.872;2.400;2023-02-25T05:18:41;6.07;;;2.42;;
69417;SDS011;56610;48.872;2.400;2023-02-25T05:21:09;8.88;;;2.92;;
69417;SDS011;56610;48.872;2.400;2023-02-25T05:23:36;8.50;;;2.90;;
69417;SDS011;56610;48.872;2.400;2023-02-25T05:26:03;9.18;;;3.17;;
69417;SDS011;56610;48.872;2.400;2023-02-25T05:28:29;7.88;;;2.88;;
69417;SDS011;56610;48.872;2.400;2023-02-25T05:30:55;6.00;;;2.50;;
69417;SDS011;56610;48.872;2.400;2023-02-25T05:33:21;8.90;;;2.47;;
69417;SDS011;56610;48.872;2.400;2023-02-25T05:35:47;7.43;;;2.40;;
69417;SDS011;56610;48.872;2.400;2023-02-25T05:38:13;6.85;;;2.60;;
69417;SDS011;56610;48.872;2.400;2023-02-25T05:40:39;8.68;;;2.70;;
69417;SDS011;56610;48.872;2.400;2023-02-25T05:43:04;8.23;;;2.97;;
69417;SDS011;56610;48.872;2.400;2023-02-25T05:45:30;7.43;;;2.80;;
69417;SDS011;56610;48.872;2.400;2023-02-25T05:47:56;7.22;;;2.50;;
69417;SDS011;56610;48.872;2.400;2023-02-25T05:50:22;7.03;;;2.70;;
69417;SDS011;56610;48.872;2.400;2023-02-25T05:52:47;11.32;;;2.95;;
69417;SDS011;56610;48.872;2.400;2023-02-25T05:55:13;8.68;;;2.80;;
69417;SDS011;56610;48.872;2.400;2023-02-25T05:57:40;9.32;;;2.80;;
69417;SDS011;56610;48.872;2.400;2023-02-25T06:00:06;7.85;;;2.92;;
69417;SDS011;56610;48.872;2.400;2023-02-25T06:02:33;5.18;;;2.13;;
69417;SDS011;56610;48.872;2.400;2023-02-25T06:05:00;8.75;;;2.83;;
69417;SDS011;56610;48.872;2.400;2023-02-25T06:07:28;11.15;;;3.35;;
69417;SDS011;56610;48.872;2.400;2023-02-25T06:09:55;5.53;;;2.30;;
69417;SDS011;56610;48.872;2.400;2023-02-25T06:12:24;9.18;;;2.83;;
69417;SDS011;56610;48.872;2.400;2023-02-25T06:14:53;7.53;;;2.40;;
69417;SDS011;56610;48.872;2.400;2023-02-25T06:17:19;8.48;;;2.97;;
69417;SDS011;56610;48.872;2.400;2023-02-25T06:19:45;9.00;;;2.50;;
69417;SDS011;56610;48.872;2.400;2023-02-25T06:22:10;5.63;;;2.28;;
69417;SDS011;56610;48.872;2.400;2023-02-25T06:24:36;11.02;;;3.03;;
69417;SDS011;56610;48.872;2.400;2023-02-25T06:27:02;8.82;;;2.65;;
69417;SDS011;56610;48.872;2.400;2023-02-25T06:29:27;6.20;;;2.25;;
69417;SDS011;56610;48.872;2.400;2023-02-25T06:31:53;5.70;;;2.10;;
69417;SDS011;56610;48.872;2.400;2023-02-25T06:34:18;8.02;;;2.60;;
69417;SDS011;56610;48.872;2.400;2023-02-25T06:36:44;5.80;;;2.28;;
69417;SDS011;56610;48.872;2.400;2023-02-25T06:39:10;6.38;;;2.45;;
69417;SDS011;56610;48.872;2.400;2023-02-25T06:41:36;6.15;;;2.20;;
69417;SDS011;56610;48.872;2.400;2023-02-25T06:44:02;7.45;;;2.40;;
69417;SDS011;56610;48.872;2.400;2023-02-25T06:46:28;7.63;;;2.45;;
69417;SDS011;56610;48.872;2.400;2023-02-25T06:48:54;6.57;;;2.30;;
69417;SDS011;56610;48.872;2.400;2023-02-25T06:51:21;7.13;;;2.40;;
69417;SDS011;56610;48.872;2.400;2023-02-25T06:53:47;7.30;;;2.50;;
69417;SDS011;56610;48.872;2.400;2023-02-25T06:56:14;8.07;;;2.95;;
69417;SDS011;56610;48.872;2.400;2023-02-25T06:58:40;8.20;;;2.10;;
69417;SDS011;56610;48.872;2.400;2023-02-25T07:01:10;5.72;;;1.98;;
69417;SDS011;56610;48.872;2.400;2023-02-25T07:03:38;7.75;;;2.50;;
69417;SDS011;56610;48.872;2.400;2023-02-25T07:06:04;8.80;;;2.88;;
69417;SDS011;56610;48.872;2.400;2023-02-25T07:08:30;6.90;;;2.25;;
69417;SDS011;56610;48.872;2.400;2023-02-25T07:11:08;6.57;;;2.33;;
69417;SDS011;56610;48.872;2.400;2023-02-25T07:13:43;7.38;;;2.58;;
69417;SDS011;56610;48.872;2.400;2023-02-25T07:16:11;7.85;;;2.47;;
69417;SDS011;56610;48.872;2.400;2023-02-25T07:18:38;8.40;;;2.75;;
69417;SDS011;56610;48.872;2.400;2023-02-25T07:21:05;9.98;;;3.00;;
69417;SDS011;56610;48.872;2.400;2023-02-25T07:23:31;9.20;;;2.53;;
69417;SDS011;56610;48.872;2.400;2023-02-25T07:25:56;7.47;;;2.63;;
69417;SDS011;56610;48.872;2.400;2023-02-25T07:28:25;6.78;;;2.10;;
69417;SDS011;56610;48.872;2.400;2023-02-25T07:30:51;11.82;;;2.97;;
69417;SDS011;56610;48.872;2.400;2023-02-25T07:33:37;7.68;;;2.50;;
69417;SDS011;56610;48.872;2.400;2023-02-25T07:36:02;8.73;;;3.08;;
69417;SDS011;56610;48.872;2.400;2023-02-25T07:38:29;7.60;;;2.80;;
69417;SDS011;56610;48.872;2.400;2023-02-25T07:40:54;6.68;;;2.80;;
69417;SDS011;56610;48.872;2.400;2023-02-25T07:43:20;6.30;;;2.72;;
69417;SDS011;56610;48.872;2.400;2023-02-25T07:45:48;8.07;;;2.72;;
69417;SDS011;56610;48.872;2.400;2023-02-25T07:48:14;8.73;;;2.75;;
69417;SDS011;56610;48.872;2.400;2023-02-25T07:50:39;5.53;;;2.50;;
69417;SDS011;56610;48.872;2.400;2023-02-25T07:53:05;7.20;;;2.38;;
69417;SDS011;56610;48.872;2.400;2023-02-25T07:55:31;6.72;;;2.30;;
69417;SDS011;56610;48.872;2.400;2023-02-25T07:57:56;5.63;;;2.53;;
69417;SDS011;56610;48.872;2.400;2023-02-25T08:00:22;7.43;;;2.65;;
69417;SDS011;56610;48.872;2.400;2023-02-25T08:02:48;10.50;;;2.83;;
69417;SDS011;56610;48.872;2.400;2023-02-25T08:05:13;7.05;;;2.45;;
69417;SDS011;56610;48.872;2.400;2023-02-25T08:07:39;7.72;;;2.78;;
69417;SDS011;56610;48.872;2.400;2023-02-25T08:10:04;4.93;;;2.17;;
69417;SDS011;56610;48.872;2.400;2023-02-25T08:12:33;7.40;;;2.33;;
69417;SDS011;56610;48.872;2.400;2023-02-25T08:14:59;7.20;;;2.50;;
69417;SDS011;56610;48.872;2.400;2023-02-25T08:17:26;6.97;;;2.30;;
69417;SDS011;56610;48.872;2.400;2023-02-25T08:19:56;5.72;;;2.50;;
69417;SDS011;56610;48.872;2.400;2023-02-25T08:22:22;7.25;;;2.50;;
69417;SDS011;56610;48.872;2.400;2023-02-25T08:24:47;9.95;;;2.88;;
69417;SDS011;56610;48.872;2.400;2023-02-25T08:27:13;5.00;;;2.08;;
69417;SDS011;56610;48.872;2.400;2023-02-25T08:29:38;6.30;;;2.30;;
69417;SDS011;56610;48.872;2.400;2023-02-25T08:32:05;9.30;;;3.00;;
69417;SDS011;56610;48.872;2.400;2023-02-25T08:34:31;7.57;;;2.75;;
69417;SDS011;56610;48.872;2.400;2023-02-25T08:37:04;6.60;;;2.00;;
69417;SDS011;56610;48.872;2.400;2023-02-25T08:39:32;5.32;;;1.95;;
69417;SDS011;56610;48.872;2.400;2023-02-25T08:41:59;9.43;;;2.38;;
69417;SDS011;56610;48.872;2.400;2023-02-25T08:44:25;7.00;;;2.45;;
69417;SDS011;56610;48.872;2.400;2023-02-25T08:46:51;6.63;;;2.28;;
69417;SDS011;56610;48.872;2.400;2023-02-25T08:49:16;11.98;;;2.83;;
69417;SDS011;56610;48.872;2.400;2023-02-25T08:51:42;8.07;;;2.78;;
69417;SDS011;56610;48.872;2.400;2023-02-25T08:54:10;9.40;;;2.47;;
69417;SDS011;56610;48.872;2.400;2023-02-25T08:56:39;6.65;;;2.40;;
69417;SDS011;56610;48.872;2.400;2023-02-25T08:59:08;9.15;;;2.58;;
69417;SDS011;56610;48.872;2.400;2023-02-25T09:01:36;9.52;;;2.67;;
69417;SDS011;56610;48.872;2.400;2023-02-25T09:04:16;6.40;;;2.58;;
69417;SDS011;56610;48.872;2.400;2023-02-25T09:06:44;9.32;;;2.45;;
69417;SDS011;56610;48.872;2.400;2023-02-25T09:09:13;6.63;;;1.98;;
69417;SDS011;56610;48.872;2.400;2023-02-25T09:11:40;9.05;;;2.20;;
69417;SDS011;56610;48.872;2.400;2023-02-25T09:14:06;7.53;;;2.15;;
69417;SDS011;56610;48.872;2.400;2023-02-25T09:16:32;7.15;;;2.33;;
69417;SDS011;56610;48.872;2.400;2023-02-25T09:18:58;7.63;;;2.15;;
69417;SDS011;56610;48.872;2.400;2023-02-25T09:21:24;8.88;;;2.75;;
69417;SDS011;56610;48.872;2.400;2023-02-25T09:23:57;10.18;;;2.63;;
69417;SDS011;56610;48.872;2.400;2023-02-25T09:26:23;9.23;;;2.67;;
69417;SDS011;56610;48.872;2.400;2023-02-25T09:28:49;6.03;;;2.17;;
69417;SDS011;56610;48.872;2.400;2023-02-25T09:31:17;10.65;;;2.42;;
69417;SDS011;56610;48.872;2.400;2023-02-25T09:33:43;8.32;;;2.53;;
69417;SDS011;56610;48.872;2.400;2023-02-25T09:36:13;9.82;;;2.60;;
69417;SDS011;56610;48.872;2.400;2023-02-25T09:38:44;7.00;;;2.33;;
69417;SDS011;56610;48.872;2.400;2023-02-25T09:52:17;6.43;;;2.08;;
69417;SDS011;56610;48.872;2.400;2023-02-25T09:55:15;6.68;;;2.58;;
69417;SDS011;56610;48.872;2.400;2023-02-25T10:00:45;6.35;;;2.25;;
69417;SDS011;56610;48.872;2.400;2023-02-25T10:05:59;5.57;;;1.75;;
69417;SDS011;56610;48.872;2.400;2023-02-25T10:09:16;6.20;;;2.15;;
69417;SDS011;56610;48.872;2.400;2023-02-25T10:26:01;6.03;;;2.20;;
69417;SDS011;56610;48.872;2.400;2023-02-25T10:28:35;7.55;;;2.55;;
69417;SDS011;56610;48.872;2.400;2023-02-25T10:31:07;4.07;;;1.65;;
69417;SDS011;56610;48.872;2.400;2023-02-25T10:33:38;5.75;;;2.22;;
69417;SDS011;56610;48.872;2.400;2023-02-25T10:36:22;6.35;;;2.10;;
69417;SDS011;56610;48.872;2.400;2023-02-25T10:38:52;4.88;;;1.90;;
69417;SDS011;56610;48.872;2.400;2023-02-25T10:41:19;7.97;;;2.33;;
69417;SDS011;56610;48.872;2.400;2023-02-25T10:43:48;4.72;;;1.70;;
69417;SDS011;56610;48.872;2.400;2023-02-25T10:48:46;5.82;;;2.10;;
69417;SDS011;56610;48.872;2.400;2023-02-25T10:51:19;4.30;;;1.67;;
69417;SDS011;56610;48.872;2.400;2023-02-25T10:56:26;5.88;;;2.03;;
69417;SDS011;56610;48.872;2.400;2023-02-25T10:59:00;6.55;;;2.17;;
69417;SDS011;56610;48.872;2.400;2023-02-25T11:01:48;8.43;;;2.25;;
69417;SDS011;56610;48.872;2.400;2023-02-25T11:04:16;6.38;;;2.10;;
69417;SDS011;56610;48.872;2.400;2023-02-25T11:06:44;5.90;;;1.90;;
69417;SDS011;56610;48.872;2.400;2023-02-25T11:14:22;5.90;;;1.95;;
69417;SDS011;56610;48.872;2.400;2023-02-25T11:19:57;6.60;;;1.90;;
69417;SDS011;56610;48.872;2.400;2023-02-25T11:22:37;6.57;;;2.00;;
69417;SDS011;56610;48.872;2.400;2023-02-25T11:25:14;5.55;;;2.10;;
69417;SDS011;56610;48.872;2.400;2023-02-25T11:27:42;4.43;;;2.05;;
69417;SDS011;56610;48.872;2.400;2023-02-25T11:32:39;6.18;;;1.70;;
69417;SDS011;56610;48.872;2.400;2023-02-25T11:35:14;4.80;;;2.03;;
69417;SDS011;56610;48.872;2.400;2023-02-25T11:37:44;5.03;;;1.83;;
69417;SDS011;56610;48.872;2.400;2023-02-25T11:40:31;5.57;;;2.00;;
69417;SDS011;56610;48.872;2.400;2023-02-25T11:45:33;4.85;;;2.00;;
69417;SDS011;56610;48.872;2.400;2023-02-25T11:48:03;3.90;;;1.33;;
69417;SDS011;56610;48.872;2.400;2023-02-25T11:53:14;4.38;;;1.17;;
69417;SDS011;56610;48.872;2.400;2023-02-25T12:28:32;7.65;;;1.70;;
69417;SDS011;56610;48.872;2.400;2023-02-25T12:31:30;5.90;;;1.55;;
69417;SDS011;56610;48.872;2.400;2023-02-25T12:34:28;5.15;;;1.10;;
69417;SDS011;56610;48.872;2.400;2023-02-25T12:43:20;3.33;;;1.20;;
69417;SDS011;56610;48.872;2.400;2023-02-25T13:04:46;2.78;;;1.40;;
69417;SDS011;56610;48.872;2.400;2023-02-25T13:24:24;7.85;;;2.05;;
69417;SDS011;56610;48.872;2.400;2023-02-25T13:43:21;2.95;;;1.33;;
69417;SDS011;56610;48.872;2.400;2023-02-25T13:51:32;4.50;;;1.60;;
69417;SDS011;56610;48.872;2.400;2023-02-25T14:02:24;5.72;;;1.65;;
69417;SDS011;56610;48.872;2.400;2023-02-25T14:07:50;5.93;;;1.80;;
69417;SDS011;56610;48.872;2.400;2023-02-25T14:10:36;5.75;;;1.80;;
69417;SDS011;56610;48.872;2.400;2023-02-25T14:16:27;4.93;;;1.70;;
69417;SDS011;56610;48.872;2.400;2023-02-25T14:24:55;4.47;;;1.75;;
69417;SDS011;56610;48.872;2.400;2023-02-25T14:27:42;6.50;;;1.98;;
69417;SDS011;56610;48.872;2.400;2023-02-25T14:30:36;6.47;;;1.65;;
69417;SDS011;56610;48.872;2.400;2023-02-25T14:39:04;6.38;;;1.77;;
69417;SDS011;56610;48.872;2.400;2023-02-25T14:44:36;5.07;;;1.60;;
69417;SDS011;56610;48.872;2.400;2023-02-25T14:49:56;4.10;;;1.40;;
69417;SDS011;56610;48.872;2.400;2023-02-25T14:52:35;4.57;;;1.50;;
69417;SDS011;56610;48.872;2.400;2023-02-25T15:06:50;3.53;;;1.48;;
69417;SDS011;56610;48.872;2.400;2023-02-25T15:20:37;4.28;;;1.58;;
69417;SDS011;56610;48.872;2.400;2023-02-25T15:23:09;4.28;;;1.45;;
69417;SDS011;56610;48.872;2.400;2023-02-25T15:25:43;4.15;;;1.50;;
69417;SDS011;56610;48.872;2.400;2023-02-25T15:33:38;5.28;;;1.90;;
69417;SDS011;56610;48.872;2.400;2023-02-25T15:46:36;5.93;;;1.65;;
69417;SDS011;56610;48.872;2.400;2023-02-25T15:51:48;4.47;;;1.70;;
69417;SDS011;56610;48.872;2.400;2023-02-25T16:12:40;5.38;;;1.60;;
69417;SDS011;56610;48.872;2.400;2023-02-25T16:15:11;5.68;;;1.65;;
69417;SDS011;56610;48.872;2.400;2023-02-25T16:17:56;4.75;;;1.70;;
69417;SDS011;56610;48.872;2.400;2023-02-25T16:20:32;2.55;;;1.15;;
69417;SDS011;56610;48.872;2.400;2023-02-25T16:23:11;5.32;;;1.73;;
69417;SDS011;56610;48.872;2.400;2023-02-25T16:31:20;4.65;;;1.63;;
69417;SDS011;56610;48.872;2.400;2023-02-25T16:34:02;4.03;;;1.80;;
69417;SDS011;56610;48.872;2.400;2023-02-25T16:36:38;5.40;;;1.83;;
69417;SDS011;56610;48.872;2.400;2023-02-25T16:39:21;5.88;;;1.77;;
69417;SDS011;56610;48.872;2.400;2023-02-25T16:41:50;11.15;;;6.60;;
69417;SDS011;56610;48.872;2.400;2023-02-25T16:44:17;12.70;;;11.27;;
69417;SDS011;56610;48.872;2.400;2023-02-25T16:46:54;12.05;;;7.85;;
69417;SDS011;56610;48.872;2.400;2023-02-25T16:49:26;4.75;;;2.47;;
69417;SDS011;56610;48.872;2.400;2023-02-25T16:51:58;5.57;;;3.30;;
69417;SDS011;56610;48.872;2.400;2023-02-25T16:54:26;5.40;;;2.75;;
69417;SDS011;56610;48.872;2.400;2023-02-25T16:56:57;8.13;;;2.25;;
69417;SDS011;56610;48.872;2.400;2023-02-25T17:02:00;5.10;;;2.20;;
69417;SDS011;56610;48.872;2.400;2023-02-25T17:04:33;5.15;;;2.00;;
69417;SDS011;56610;48.872;2.400;2023-02-25T17:09:56;6.63;;;2.45;;
69417;SDS011;56610;48.872;2.400;2023-02-25T17:15:06;7.05;;;2.38;;
69417;SDS011;56610;48.872;2.400;2023-02-25T17:17:38;5.63;;;2.17;;
69417;SDS011;56610;48.872;2.400;2023-02-25T17:20:06;4.53;;;1.90;;
69417;SDS011;56610;48.872;2.400;2023-02-25T17:23:14;4.82;;;1.75;;
69417;SDS011;56610;48.872;2.400;2023-02-25T17:25:42;5.95;;;2.15;;
69417;SDS011;56610;48.872;2.400;2023-02-25T17:28:24;5.35;;;1.98;;
69417;SDS011;56610;48.872;2.400;2023-02-25T17:31:02;6.65;;;1.92;;
69417;SDS011;56610;48.872;2.400;2023-02-25T17:33:33;6.43;;;2.08;;
69417;SDS011;56610;48.872;2.400;2023-02-25T17:36:10;7.78;;;2.20;;
69417;SDS011;56610;48.872;2.400;2023-02-25T17:41:05;5.22;;;2.03;;
69417;SDS011;56610;48.872;2.400;2023-02-25T17:43:32;6.72;;;2.45;;
69417;SDS011;56610;48.872;2.400;2023-02-25T17:46:01;6.22;;;2.25;;
69417;SDS011;56610;48.872;2.400;2023-02-25T17:51:41;6.13;;;2.50;;
69417;SDS011;56610;48.872;2.400;2023-02-25T17:54:08;4.93;;;1.73;;
69417;SDS011;56610;48.872;2.400;2023-02-25T17:56:40;5.47;;;2.25;;
69417;SDS011;56610;48.872;2.400;2023-02-25T18:04:19;6.20;;;2.60;;
69417;SDS011;56610;48.872;2.400;2023-02-25T18:06:50;7.05;;;2.72;;
69417;SDS011;56610;48.872;2.400;2023-02-25T18:09:29;4.93;;;2.00;;
69417;SDS011;56610;48.872;2.400;2023-02-25T18:12:02;6.22;;;1.75;;
69417;SDS011;56610;48.872;2.400;2023-02-25T18:14:37;5.97;;;1.80;;
69417;SDS011;56610;48.872;2.400;2023-02-25T18:17:18;4.22;;;1.55;;
69417;SDS011;56610;48.872;2.400;2023-02-25T18:19:53;3.67;;;1.42;;
69417;SDS011;56610;48.872;2.400;2023-02-25T18:22:44;5.38;;;1.60;;
69417;SDS011;56610;48.872;2.400;2023-02-25T18:28:01;5.03;;;1.80;;
69417;SDS011;56610;48.872;2.400;2023-02-25T18:30:28;6.32;;;2.00;;
69417;SDS011;56610;48.872;2.400;2023-02-25T18:32:56;4.68;;;1.60;;
69417;SDS011;56610;48.872;2.400;2023-02-25T18:35:23;4.32;;;1.65;;
69417;SDS011;56610;48.872;2.400;2023-02-25T18:37:51;3.00;;;1.70;;
69417;SDS011;56610;48.872;2.400;2023-02-25T18:40:22;3.75;;;1.75;;
69417;SDS011;56610;48.872;2.400;2023-02-25T18:42:49;7.43;;;2.13;;
69417;SDS011;56610;48.872;2.400;2023-02-25T18:45:16;5.78;;;1.80;;
69417;SDS011;56610;48.872;2.400;2023-02-25T18:47:45;6.30;;;2.20;;
69417;SDS011;56610;48.872;2.400;2023-02-25T18:50:11;5.35;;;2.15;;
69417;SDS011;56610;48.872;2.400;2023-02-25T18:52:37;5.65;;;2.40;;
69417;SDS011;56610;48.872;2.400;2023-02-25T18:55:05;5.15;;;1.92;;
69417;SDS011;56610;48.872;2.400;2023-02-25T18:57:32;4.50;;;1.70;;
69417;SDS011;56610;48.872;2.400;2023-02-25T18:59:57;6.50;;;2.45;;
69417;SDS011;56610;48.872;2.400;2023-02-25T19:04:59;4.68;;;2.22;;
69417;SDS011;56610;48.872;2.400;2023-02-25T19:07:31;4.65;;;2.10;;
69417;SDS011;56610;48.872;2.400;2023-02-25T19:09:58;6.95;;;2.75;;
69417;SDS011;56610;48.872;2.400;2023-02-25T19:12:26;8.45;;;2.55;;
69417;SDS011;56610;48.872;2.400;2023-02-25T19:17:20;6.85;;;2.58;;
69417;SDS011;56610;48.872;2.400;2023-02-25T19:19:46;6.40;;;2.55;;
69417;SDS011;56610;48.872;2.400;2023-02-25T19:22:12;6.10;;;2.38;;
69417;SDS011;56610;48.872;2.400;2023-02-25T19:24:41;8.75;;;2.72;;
69417;SDS011;56610;48.872;2.400;2023-02-25T19:27:23;7.15;;;2.50;;
69417;SDS011;56610;48.872;2.400;2023-02-25T19:29:53;7.85;;;2.40;;
69417;SDS011;56610;48.872;2.400;2023-02-25T19:32:24;6.47;;;2.42;;
69417;SDS011;56610;48.872;2.400;2023-02-25T19:34:50;5.85;;;2.45;;
69417;SDS011;56610;48.872;2.400;2023-02-25T19:37:17;6.25;;;2.47;;
69417;SDS011;56610;48.872;2.400;2023-02-25T19:39:44;7.20;;;2.85;;
69417;SDS011;56610;48.872;2.400;2023-02-25T19:42:11;8.25;;;2.80;;
69417;SDS011;56610;48.872;2.400;2023-02-25T19:44:37;6.90;;;2.58;;
69417;SDS011;56610;48.872;2.400;2023-02-25T19:47:04;9.10;;;3.85;;
69417;SDS011;56610;48.872;2.400;2023-02-25T19:51:57;8.77;;;2.95;;
69417;SDS011;56610;48.872;2.400;2023-02-25T19:54:26;5.93;;;2.90;;
69417;SDS011;56610;48.872;2.400;2023-02-25T19:56:51;6.18;;;2.90;;
69417;SDS011;56610;48.872;2.400;2023-02-25T19:59:17;8.10;;;3.03;;
69417;SDS011;56610;48.872;2.400;2023-02-25T20:01:43;7.30;;;3.08;;
69417;SDS011;56610;48.872;2.400;2023-02-25T20:04:08;7.45;;;2.90;;
69417;SDS011;56610;48.872;2.400;2023-02-25T20:06:35;8.32;;;2.47;;
69417;SDS011;56610;48.872;2.400;2023-02-25T20:09:02;9.77;;;2.80;;
69417;SDS011;56610;48.872;2.400;2023-02-25T20:11:29;4.10;;;2.10;;
69417;SDS011;56610;48.872;2.400;2023-02-25T20:13:55;8.70;;;2.90;;
69417;SDS011;56610;48.872;2.400;2023-02-25T20:16:21;4.88;;;2.60;;
69417;SDS011;56610;48.872;2.400;2023-02-25T20:18:49;7.03;;;2.47;;